Felts Field
KSFF : now visible

Airfield :











YOU CAN JOIN US ON...

 
LOGIN :

Register | Disclaimer

   EN    FR    IT 

 









Legend :    VFR   Marginal VFR   IFR   Intensive IFR   Very Intensive IFR
Visi :
Ceiling :
>= 8 km
>= 3000ft
5 to 8 km
1000 to 3000 ft
1500m to 5 km
500 to 1000 ft
800 to 1500m
200 to 500 ft
< 800m
< 200 ft
Symbols :   Thunderstorms  Fog  Heavy snow  Heavy precipitations  Wind > 20 kt






- Airport Elevation : 1953 ft


KSFF - Felts Field

CURRENT METAR :
  • 110918Z AUTO 00000KT 3/4SM -SN BR SCT005 BKN010 OVC015 M01/M02 A3007 RMK AO2 CIG 008V012 P0002 T10061017

EXPIRED METARs :
  • 110901Z AUTO 00000KT 1SM -SN BR FEW003 OVC013 M01/M02 A3007 RMK AO2 P0000 T10061017
  • 110853Z AUTO 00000KT 3/4SM -SN BR BKN011 OVC018 M01/M02 A3007 RMK AO2 SLP197 P0007 60009 T10061017 58015
  • 110838Z AUTO 00000KT 3/4SM -SN BR FEW005 BKN013 OVC020 M01/M02 A3008 RMK AO2 P0005 T10061017
  • 110824Z AUTO 00000KT 3/4SM -SN BR BKN013 OVC020 M01/M03 A3008 RMK AO2 P0003 T10061028
  • 110753Z AUTO 00000KT 1 1/4SM -SN BR OVC020 M01/M02 A3010 RMK AO2 SNB00 SLP207 P0002 T10111022 400501017
  • 110741Z AUTO 24003KT 1 1/4SM -SN BR BKN012 OVC022 M01/M02 A3011 RMK AO2 SNB00 P0002 T10111022
  • 110728Z AUTO 24003KT 3/4SM -SN BR OVC010 M01/M02 A3011 RMK AO2 SNB00 P0001 T10111022
  • 110716Z AUTO 26003KT 1 3/4SM -SN BR OVC012 M01/M03 A3012 RMK AO2 SNB00 P0000 T10061028
  • 110653Z AUTO 26005KT 10SM BKN010 OVC075 M01/M03 A3012 RMK AO2 SLP215 T10061028
  • 110639Z AUTO 27003KT 10SM FEW011 SCT060 OVC075 M01/M03 A3011 RMK AO2 T10061028

TAF KSFF
Valid from the 11 at 06:00 until the 12 at 06:00 UTC


110542Z 1106/1206 VRB03KT P6SM VCSH BKN015 OVC100
FM110800 00000KT 2SM -SN BR OVC011
TEMPO 1109/1113 3/4SM -SN BR OVC008
FM111300 23003KT 3SM BR OVC006
FM112100 14004KT 6SM BR VCSH OVC015
FM120200 18005KT 2SM -RA BR OVC007



MET'MAP, your aeronautical weather chart ! - Copyright ORBIFLY December 2007 - Disclaimer

ORBIFLY MET'MAP TEAM :

Programming & Development : Alexandra Zaïnal
Concept & original design : Baudouin d'Aumeries
Assistance for programming : Marc-Olivier Méhu
Technical & hardware support : Manuel Goepfert

Contact : metmap@orbifly.com




SOURCES & CREDITS :

   NOAA       Earth
Advisory